createdAt,value
2018-02-10T00:00:36.742Z,90.11
2018-02-10T00:01:37.362Z,89.92
2018-02-10T00:02:36.569Z,89.92
2018-02-10T00:03:36.479Z,89.92
2018-02-10T00:04:36.401Z,89.92
2018-02-10T00:05:36.310Z,89.92
2018-02-10T00:06:36.229Z,89.83
2018-02-10T00:07:36.136Z,90.01
2018-02-10T00:08:36.063Z,90.01
2018-02-10T00:09:35.968Z,90.30
2018-02-10T00:10:35.889Z,90.11
2018-02-10T00:11:35.797Z,89.92
2018-02-10T00:12:35.721Z,89.92
2018-02-10T00:13:35.627Z,90.01
2018-02-10T00:14:35.548Z,90.01
2018-02-10T00:15:35.455Z,89.83
2018-02-10T00:16:35.378Z,89.73
2018-02-10T00:17:35.285Z,89.92
2018-02-10T00:18:35.207Z,90.01
2018-02-10T00:19:35.118Z,89.64
2018-02-10T00:20:35.038Z,89.92
2018-02-10T00:21:34.945Z,89.83
2018-02-10T00:22:34.872Z,90.01
2018-02-10T00:23:34.774Z,89.92
2018-02-10T00:24:34.694Z,89.92
2018-02-10T00:25:34.605Z,89.26
2018-02-10T00:26:34.530Z,89.83
2018-02-10T00:27:34.435Z,89.64
2018-02-10T00:28:34.357Z,89.45
2018-02-10T00:29:34.277Z,89.54
2018-02-10T00:30:34.184Z,89.73
2018-02-10T00:31:34.093Z,89.36
2018-02-10T00:32:34.017Z,89.73
2018-02-10T00:33:33.928Z,89.73
2018-02-10T00:34:33.843Z,89.73
2018-02-10T00:35:33.751Z,89.64
2018-02-10T00:36:33.682Z,89.45
2018-02-10T00:37:33.581Z,89.92
2018-02-10T00:38:33.506Z,89.45
2018-02-10T00:39:33.409Z,89.64
2018-02-10T00:40:34.336Z,89.64
2018-02-10T00:41:33.240Z,90.01
2018-02-10T00:42:33.164Z,89.54
2018-02-10T00:43:33.069Z,89.45
2018-02-10T00:44:32.994Z,90.11
2018-02-10T00:45:32.905Z,90.01
2018-02-10T00:46:32.825Z,90.20
2018-02-10T00:47:32.726Z,90.01
2018-02-10T00:48:32.650Z,89.73
2018-02-10T00:49:32.559Z,89.54
2018-02-10T00:50:32.481Z,89.73
2018-02-10T00:51:32.388Z,89.83
2018-02-10T00:52:32.312Z,89.64
2018-02-10T00:53:32.217Z,89.54
2018-02-10T00:54:32.141Z,89.54
2018-02-10T00:55:32.047Z,89.26
2018-02-10T00:56:31.970Z,89.54
2018-02-10T00:57:31.878Z,89.73
2018-02-10T00:58:31.800Z,89.83
2018-02-10T00:59:31.707Z,89.64
2018-02-10T01:00:31.629Z,89.92
2018-02-10T01:01:31.538Z,89.64
2018-02-10T01:02:31.458Z,89.17
2018-02-10T01:03:31.364Z,89.07
2018-02-10T01:04:31.289Z,88.79
2018-02-10T01:05:31.196Z,88.88
2018-02-10T01:06:31.116Z,89.17
2018-02-10T01:07:31.023Z,89.64
2018-02-10T01:08:30.952Z,89.83
2018-02-10T01:09:30.857Z,89.73
2018-02-10T01:10:30.774Z,90.11
2018-02-10T01:11:30.686Z,90.11
2018-02-10T01:12:30.606Z,90.20
2018-02-10T01:13:30.513Z,89.73
2018-02-10T01:14:30.442Z,89.64
2018-02-10T01:15:30.350Z,89.83
2018-02-10T01:16:30.268Z,89.92
2018-02-10T01:17:30.174Z,89.92
2018-02-10T01:18:30.095Z,90.49
2018-02-10T01:19:30.002Z,90.11
2018-02-10T01:20:29.924Z,91.24
2018-02-10T01:21:29.830Z,91.05
2018-02-10T01:22:29.799Z,90.68
2018-02-10T01:23:29.661Z,91.05
2018-02-10T01:24:29.586Z,90.01
2018-02-10T01:25:29.490Z,90.49
2018-02-10T01:26:29.413Z,90.20
2018-02-10T01:27:29.318Z,90.11
2018-02-10T01:28:29.243Z,90.49
2018-02-10T01:29:29.150Z,90.39
2018-02-10T01:30:29.069Z,90.49
2018-02-10T01:31:28.980Z,90.96
2018-02-10T01:32:28.901Z,91.05
2018-02-10T01:33:28.808Z,91.43
2018-02-10T01:34:28.731Z,91.24
2018-02-10T01:35:28.639Z,91.34
2018-02-10T01:36:28.558Z,91.43
2018-02-10T01:37:28.468Z,91.91
2018-02-10T01:38:28.390Z,91.91
2018-02-10T01:39:28.297Z,91.91
2018-02-10T01:40:28.219Z,91.72
2018-02-10T01:41:28.127Z,91.91
2018-02-10T01:42:28.049Z,91.81
2018-02-10T01:43:27.957Z,91.91
2018-02-10T01:44:27.878Z,92.10
2018-02-10T01:45:27.791Z,92.19
2018-02-10T01:46:27.710Z,91.81
2018-02-10T01:47:27.616Z,92.10
2018-02-10T01:48:27.539Z,92.10
2018-02-10T01:49:27.448Z,92.10
2018-02-10T01:50:27.370Z,92.00
2018-02-10T01:51:27.274Z,92.00
2018-02-10T01:52:27.194Z,91.81
2018-02-10T01:53:27.108Z,91.91
2018-02-10T01:54:27.025Z,92.19
2018-02-10T01:55:26.935Z,92.19
2018-02-10T01:56:26.862Z,92.19
2018-02-10T01:57:26.763Z,92.00
2018-02-10T01:58:27.685Z,91.62
2018-02-10T01:59:26.596Z,91.34
2018-02-10T02:00:26.514Z,91.15
2018-02-10T02:01:26.427Z,91.34
2018-02-10T02:02:26.346Z,91.34
2018-02-10T02:03:26.255Z,91.34
2018-02-10T02:04:26.180Z,91.43
2018-02-10T02:05:26.085Z,91.34
2018-02-10T02:06:26.005Z,90.96
2018-02-10T02:07:25.913Z,91.34
2018-02-10T02:08:25.834Z,91.05
2018-02-10T02:09:25.743Z,90.77
2018-02-10T02:10:25.663Z,91.05
2018-02-10T02:11:25.570Z,91.24
2018-02-10T02:12:25.496Z,90.77
2018-02-10T02:13:25.403Z,91.05
2018-02-10T02:14:25.327Z,91.43
2018-02-10T02:15:25.233Z,92.00
2018-02-10T02:16:25.154Z,91.72
2018-02-10T02:17:25.066Z,93.04
2018-02-10T02:18:24.984Z,92.76
2018-02-10T02:19:24.891Z,92.38
2018-02-10T02:20:24.814Z,93.04
2018-02-10T02:21:24.721Z,93.04
2018-02-10T02:22:24.643Z,93.04
2018-02-10T02:23:24.549Z,92.76
2018-02-10T02:24:24.482Z,92.85
2018-02-10T02:25:24.378Z,92.29
2018-02-10T02:26:24.302Z,92.00
2018-02-10T02:27:24.211Z,92.29
2018-02-10T02:28:24.132Z,91.05
2018-02-10T02:29:24.039Z,91.43
2018-02-10T02:30:23.962Z,91.15
2018-02-10T02:31:23.870Z,91.43
2018-02-10T02:32:23.793Z,91.43
2018-02-10T02:33:23.696Z,91.62
2018-02-10T02:34:23.622Z,92.19
2018-02-10T02:35:23.528Z,92.00
2018-02-10T02:36:23.462Z,91.81
2018-02-10T02:37:23.367Z,91.72
2018-02-10T02:38:23.283Z,91.72
2018-02-10T02:39:23.187Z,92.29
2018-02-10T02:40:23.109Z,92.10
2018-02-10T02:41:23.018Z,93.04
2018-02-10T02:42:22.941Z,93.18
2018-02-10T02:43:22.853Z,92.66
2018-02-10T02:44:22.772Z,93.47
2018-02-10T02:45:22.677Z,93.04
2018-02-10T02:46:22.599Z,92.38
2018-02-10T02:47:22.506Z,92.66
2018-02-10T02:48:22.432Z,92.76
2018-02-10T02:49:22.335Z,92.66
2018-02-10T02:50:22.261Z,92.94
2018-02-10T02:51:22.168Z,92.10
2018-02-10T02:52:22.087Z,91.81
2018-02-10T02:53:21.995Z,92.19
2018-02-10T02:54:21.917Z,91.81
2018-02-10T02:55:21.825Z,92.38
2018-02-10T02:56:21.752Z,92.66
2018-02-10T02:57:21.658Z,92.57
2018-02-10T02:58:21.580Z,92.66
2018-02-10T02:59:21.484Z,93.13
2018-02-10T03:00:21.414Z,93.61
2018-02-10T03:01:21.315Z,92.66
2018-02-10T03:02:21.238Z,93.28
2018-02-10T03:03:21.145Z,92.76
2018-02-10T03:04:21.066Z,92.33
2018-02-10T03:05:20.975Z,92.47
2018-02-10T03:06:20.896Z,92.85
2018-02-10T03:07:20.804Z,93.13
2018-02-10T03:08:20.727Z,92.47
2018-02-10T03:09:20.634Z,92.85
2018-02-10T03:10:20.557Z,93.42
2018-02-10T03:11:20.463Z,92.94
2018-02-10T03:12:20.385Z,92.61
2018-02-10T03:13:20.296Z,92.57
2018-02-10T03:14:20.216Z,92.76
2018-02-10T03:15:20.128Z,92.57
2018-02-10T03:16:20.046Z,92.61
2018-02-10T03:17:19.957Z,92.76
2018-02-10T03:18:19.877Z,92.94
2018-02-10T03:19:19.783Z,93.04
2018-02-10T03:20:19.705Z,92.90
2018-02-10T03:21:19.614Z,93.04
2018-02-10T03:22:19.531Z,92.33
2018-02-10T03:23:19.448Z,92.29
2018-02-10T03:24:19.367Z,92.85
2018-02-10T03:25:19.276Z,92.94
2018-02-10T03:26:19.195Z,92.76
2018-02-10T03:27:19.103Z,92.76
2018-02-10T03:28:19.027Z,92.29
2018-02-10T03:29:18.934Z,91.91
2018-02-10T03:30:18.859Z,92.19
2018-02-10T03:31:18.766Z,91.91
2018-02-10T03:32:18.685Z,92.24
2018-02-10T03:33:18.599Z,92.76
2018-02-10T03:34:18.514Z,92.66
2018-02-10T03:35:18.422Z,92.76
2018-02-10T03:36:18.344Z,92.76
2018-02-10T03:37:18.253Z,92.76
2018-02-10T03:38:18.176Z,92.66
2018-02-10T03:39:18.080Z,92.19
2018-02-10T03:40:18.004Z,92.29
2018-02-10T03:41:17.916Z,92.66
2018-02-10T03:42:17.840Z,92.38
2018-02-10T03:43:17.747Z,92.38
2018-02-10T03:44:17.666Z,92.38
2018-02-10T03:45:17.574Z,91.91
2018-02-10T03:46:17.492Z,92.19
2018-02-10T03:47:17.400Z,92.10
2018-02-10T03:48:17.327Z,92.29
2018-02-10T03:49:17.234Z,92.00
2018-02-10T03:50:17.156Z,91.91
2018-02-10T03:51:17.061Z,92.19
2018-02-10T03:52:16.984Z,91.81
2018-02-10T03:53:16.898Z,91.91
2018-02-10T03:54:16.813Z,92.29
2018-02-10T03:55:16.720Z,92.00
2018-02-10T03:56:16.648Z,91.53
2018-02-10T03:57:16.552Z,91.34
2018-02-10T03:58:16.479Z,91.15
2018-02-10T03:59:16.381Z,91.24
2018-02-10T04:00:16.302Z,91.24
2018-02-10T04:01:16.215Z,91.24
2018-02-10T04:02:16.136Z,91.24
2018-02-10T04:03:16.041Z,91.43
2018-02-10T04:04:15.960Z,91.53
2018-02-10T04:05:15.872Z,91.34
2018-02-10T04:06:15.803Z,91.43
2018-02-10T04:07:15.701Z,91.43
2018-02-10T04:08:15.624Z,91.62
2018-02-10T04:09:15.533Z,91.53
2018-02-10T04:10:15.454Z,92.10
2018-02-10T04:11:15.364Z,92.00
2018-02-10T04:12:15.281Z,91.91
2018-02-10T04:13:15.189Z,92.29
2018-02-10T04:14:15.114Z,92.10
2018-02-10T04:15:15.019Z,92.76
2018-02-10T04:16:14.945Z,92.76
2018-02-10T04:17:14.853Z,92.47
2018-02-10T04:18:14.774Z,92.76
2018-02-10T04:19:14.682Z,92.76
2018-02-10T04:20:14.603Z,92.57
2018-02-10T04:21:14.514Z,92.57
2018-02-10T04:22:14.436Z,93.04
2018-02-10T04:23:14.340Z,92.47
2018-02-10T04:24:14.267Z,92.38
2018-02-10T04:25:14.172Z,92.66
2018-02-10T04:26:14.096Z,92.76
2018-02-10T04:27:14.004Z,92.66
2018-02-10T04:28:13.924Z,92.47
2018-02-10T04:29:13.833Z,92.47
2018-02-10T04:30:13.758Z,92.66
2018-02-10T04:31:13.661Z,92.85
2018-02-10T04:32:13.584Z,92.19
2018-02-10T04:33:13.502Z,92.85
2018-02-10T04:34:13.417Z,93.13
2018-02-10T04:35:13.321Z,93.04
2018-02-10T04:36:13.250Z,93.70
2018-02-10T04:37:13.159Z,93.13
2018-02-10T04:38:13.076Z,93.32
2018-02-10T04:39:12.983Z,93.61
2018-02-10T04:40:12.914Z,93.80
2018-02-10T04:41:12.815Z,93.61
2018-02-10T04:42:12.736Z,93.80
2018-02-10T04:43:12.645Z,93.42
2018-02-10T04:44:12.569Z,93.70
2018-02-10T04:45:12.475Z,93.32
2018-02-10T04:46:12.397Z,93.32
2018-02-10T04:47:12.305Z,93.51
2018-02-10T04:48:12.227Z,93.13
2018-02-10T04:49:12.133Z,93.32
2018-02-10T04:50:12.089Z,93.80
2018-02-10T04:51:11.964Z,93.32
2018-02-10T04:52:11.890Z,93.80
2018-02-10T04:53:11.795Z,93.51
2018-02-10T04:54:11.808Z,94.08
2018-02-10T04:55:11.631Z,93.70
2018-02-10T04:56:11.617Z,93.80
2018-02-10T04:57:11.455Z,93.89
2018-02-10T04:58:11.424Z,93.80
2018-02-10T04:59:11.300Z,93.13
2018-02-10T05:00:11.232Z,93.23
2018-02-10T05:01:11.116Z,93.04
2018-02-10T05:02:11.042Z,93.23
2018-02-10T05:03:10.947Z,93.32
2018-02-10T05:04:10.951Z,93.70
2018-02-10T05:05:10.779Z,94.08
2018-02-10T05:06:10.705Z,93.80
2018-02-10T05:07:10.608Z,93.32
2018-02-10T05:08:10.526Z,92.94
2018-02-10T05:09:10.439Z,93.61
2018-02-10T05:10:10.359Z,93.04
2018-02-10T05:11:10.267Z,93.04
2018-02-10T05:12:10.185Z,93.13
2018-02-10T05:13:10.100Z,93.04
2018-02-10T05:14:10.095Z,92.94
2018-02-10T05:15:09.929Z,93.04
2018-02-10T05:16:09.898Z,93.04
2018-02-10T05:17:09.763Z,92.94
2018-02-10T05:18:09.680Z,93.32
2018-02-10T05:19:09.586Z,93.04
2018-02-10T05:20:09.515Z,92.85
2018-02-10T05:21:09.421Z,93.61
2018-02-10T05:22:09.430Z,93.51
2018-02-10T05:23:09.251Z,93.80
2018-02-10T05:24:09.266Z,93.89
2018-02-10T05:25:09.080Z,94.37
2018-02-10T05:26:09.048Z,94.37
2018-02-10T05:27:08.908Z,94.27
2018-02-10T05:28:08.860Z,94.74
2018-02-10T05:29:08.745Z,95.21
2018-02-10T05:30:08.766Z,95.40
2018-02-10T05:31:08.570Z,95.69
2018-02-10T05:32:08.496Z,95.88
2018-02-10T05:33:08.401Z,95.69
2018-02-10T05:34:08.383Z,95.50
2018-02-10T05:35:08.231Z,95.59
2018-02-10T05:36:08.155Z,95.03
2018-02-10T05:37:08.061Z,94.93
2018-02-10T05:38:07.985Z,94.93
2018-02-10T05:39:07.892Z,94.74
2018-02-10T05:40:07.910Z,94.18
2018-02-10T05:41:07.723Z,94.74
2018-02-10T05:42:07.714Z,94.37
2018-02-10T05:43:07.550Z,93.99
2018-02-10T05:44:07.526Z,94.18
2018-02-10T05:45:07.386Z,93.70
2018-02-10T05:46:07.335Z,94.37
2018-02-10T05:47:07.210Z,94.37
2018-02-10T05:48:07.143Z,94.56
2018-02-10T05:49:07.044Z,94.56
2018-02-10T05:50:06.966Z,94.27
2018-02-10T05:51:06.871Z,94.93
2018-02-10T05:52:06.867Z,95.12
2018-02-10T05:53:06.701Z,95.50
2018-02-10T05:54:06.671Z,95.31
2018-02-10T05:55:06.534Z,95.50
2018-02-10T05:56:06.481Z,95.88
2018-02-10T05:57:06.364Z,95.40
2018-02-10T05:58:06.391Z,95.69
2018-02-10T05:59:06.193Z,94.74
2018-02-10T06:00:06.197Z,94.84
2018-02-10T06:01:06.026Z,95.12
2018-02-10T06:02:06.004Z,95.31
2018-02-10T06:03:05.858Z,95.59
2018-02-10T06:04:05.816Z,96.16
2018-02-10T06:05:05.685Z,96.64
2018-02-10T06:06:05.619Z,96.45
2018-02-10T06:07:05.515Z,95.97
2018-02-10T06:08:05.532Z,96.16
2018-02-10T06:09:05.346Z,95.97
2018-02-10T06:10:05.342Z,95.97
2018-02-10T06:11:05.179Z,95.40
2018-02-10T06:12:05.149Z,95.88
2018-02-10T06:13:05.007Z,95.21
2018-02-10T06:14:04.957Z,95.69
2018-02-10T06:15:04.834Z,95.03
2018-02-10T06:16:04.869Z,95.12
2018-02-10T06:17:04.668Z,94.93
2018-02-10T06:18:04.587Z,94.84
2018-02-10T06:19:04.493Z,94.46
2018-02-10T06:20:04.489Z,94.56
2018-02-10T06:21:04.326Z,94.46
2018-02-10T06:22:04.296Z,94.37
2018-02-10T06:23:04.155Z,94.46
2018-02-10T06:24:04.083Z,94.74
2018-02-10T06:25:03.985Z,93.99
2018-02-10T06:26:04.014Z,94.46
2018-02-10T06:27:03.817Z,94.37
2018-02-10T06:28:03.825Z,94.08
2018-02-10T06:29:03.648Z,94.08
2018-02-10T06:30:03.572Z,93.80
2018-02-10T06:31:03.479Z,94.46
2018-02-10T06:32:03.437Z,94.46
2018-02-10T06:33:03.308Z,94.46
2018-02-10T06:34:03.244Z,94.93
2018-02-10T06:35:03.137Z,94.74
2018-02-10T06:36:04.074Z,95.40
2018-02-10T06:37:02.987Z,95.12
2018-02-10T06:38:02.965Z,95.69
2018-02-10T06:39:02.799Z,96.16
2018-02-10T06:40:02.776Z,95.88
2018-02-10T06:41:02.635Z,96.16
2018-02-10T06:42:02.580Z,95.97
2018-02-10T06:43:02.458Z,95.88
2018-02-10T06:44:02.493Z,96.07
2018-02-10T06:45:02.291Z,95.97
2018-02-10T06:46:02.300Z,95.78
2018-02-10T06:47:02.126Z,95.69
2018-02-10T06:48:02.109Z,95.64
2018-02-10T06:49:01.950Z,95.83
2018-02-10T06:50:01.917Z,95.73
2018-02-10T06:51:01.781Z,95.31
2018-02-10T06:52:01.725Z,95.50
2018-02-10T06:53:01.615Z,95.40
2018-02-10T06:54:01.633Z,95.59
2018-02-10T06:55:01.443Z,95.73
2018-02-10T06:56:01.447Z,95.21
2018-02-10T06:57:01.273Z,95.21
2018-02-10T06:58:01.195Z,95.12
2018-02-10T06:59:01.104Z,94.74
2018-02-10T07:00:01.060Z,94.93
2018-02-10T07:01:00.933Z,94.93
2018-02-10T07:02:00.869Z,94.84
2018-02-10T07:03:00.763Z,94.84
2018-02-10T07:04:00.688Z,94.93
2018-02-10T07:05:00.596Z,95.69
2018-02-10T07:06:00.587Z,95.50
2018-02-10T07:07:00.423Z,95.31
2018-02-10T07:08:00.351Z,95.69
2018-02-10T07:09:00.254Z,95.59
2018-02-10T07:10:00.204Z,95.31
2018-02-10T07:11:00.083Z,95.59
2018-02-10T07:12:00.115Z,95.40
2018-02-10T07:12:59.915Z,95.03
2018-02-10T07:13:59.923Z,94.84
2018-02-10T07:14:59.744Z,94.56
2018-02-10T07:15:59.730Z,94.84
2018-02-10T07:16:59.577Z,94.84
2018-02-10T07:17:59.546Z,95.03
2018-02-10T07:18:59.404Z,94.84
2018-02-10T07:19:59.346Z,94.84
2018-02-10T07:20:59.237Z,94.93
2018-02-10T07:21:59.259Z,94.84
2018-02-10T07:22:59.066Z,95.21
2018-02-10T07:23:59.068Z,95.69
2018-02-10T07:24:58.897Z,95.78
2018-02-10T07:25:58.878Z,95.03
2018-02-10T07:26:58.728Z,95.50
2018-02-10T07:27:58.683Z,96.07
2018-02-10T07:28:58.557Z,95.40
2018-02-10T07:29:58.480Z,95.59
2018-02-10T07:30:58.389Z,95.69
2018-02-10T07:31:58.402Z,95.69
2018-02-10T07:32:58.220Z,95.69
2018-02-10T07:33:58.211Z,95.31
2018-02-10T07:34:58.054Z,95.88
2018-02-10T07:35:58.018Z,95.88
2018-02-10T07:36:57.878Z,95.69
2018-02-10T07:37:57.825Z,95.88
2018-02-10T07:38:57.706Z,95.69
2018-02-10T07:39:57.739Z,95.59
2018-02-10T07:40:57.539Z,95.69
2018-02-10T07:41:57.545Z,96.16
2018-02-10T07:42:57.364Z,95.78
2018-02-10T07:43:57.292Z,96.54
2018-02-10T07:44:57.198Z,96.73
2018-02-10T07:45:57.124Z,96.45
2018-02-10T07:46:57.031Z,96.83
2018-02-10T07:47:56.955Z,96.83
2018-02-10T07:48:56.868Z,97.11
2018-02-10T07:49:56.882Z,97.01
2018-02-10T07:50:56.694Z,97.01
2018-02-10T07:51:56.690Z,96.64
2018-02-10T07:52:56.551Z,96.26
2018-02-10T07:53:56.511Z,95.69
2018-02-10T07:54:56.351Z,95.59
2018-02-10T07:55:56.267Z,95.69
2018-02-10T07:56:56.290Z,95.88
2018-02-10T07:57:56.098Z,95.40
2018-02-10T07:58:56.200Z,95.50
2018-02-10T07:59:55.932Z,95.59
2018-02-10T08:00:55.904Z,95.59
2018-02-10T08:01:55.758Z,95.12
2018-02-10T08:02:55.819Z,94.93
2018-02-10T08:03:55.591Z,94.93
2018-02-10T08:04:55.520Z,95.03
2018-02-10T08:05:55.418Z,95.03
2018-02-10T08:06:55.436Z,95.12
2018-02-10T08:07:55.252Z,94.84
2018-02-10T08:08:55.348Z,95.12
2018-02-10T08:09:55.080Z,94.65
2018-02-10T08:10:55.159Z,94.84
2018-02-10T08:11:54.914Z,94.93
2018-02-10T08:12:54.969Z,95.12
2018-02-10T08:13:54.877Z,95.03
2018-02-10T08:14:54.775Z,94.65
2018-02-10T08:15:54.572Z,95.59
2018-02-10T08:16:54.584Z,95.50
2018-02-10T08:17:54.401Z,95.40
2018-02-10T08:18:54.492Z,95.40
2018-02-10T08:19:54.231Z,95.50
2018-02-10T08:20:54.303Z,95.50
2018-02-10T08:21:54.062Z,95.40
2018-02-10T08:22:54.113Z,95.59
2018-02-10T08:23:53.896Z,95.97
2018-02-10T08:24:53.923Z,95.50
2018-02-10T08:25:53.727Z,95.69
2018-02-10T08:26:53.832Z,96.07
2018-02-10T08:27:53.560Z,96.35
2018-02-10T08:28:53.643Z,96.45
2018-02-10T08:29:53.388Z,96.07
2018-02-10T08:30:53.452Z,96.64
2018-02-10T08:31:53.217Z,96.26
2018-02-10T08:32:53.261Z,96.64
2018-02-10T08:33:53.044Z,96.64
2018-02-10T08:34:53.168Z,96.54
2018-02-10T08:35:52.878Z,96.73
2018-02-10T08:36:52.982Z,96.54
2018-02-10T08:37:52.708Z,96.73
2018-02-10T08:38:52.790Z,96.64
2018-02-10T08:39:52.539Z,96.64
2018-02-10T08:40:52.600Z,96.64
2018-02-10T08:41:52.365Z,96.45
2018-02-10T08:42:52.410Z,96.64
2018-02-10T08:43:52.195Z,96.26
2018-02-10T08:44:52.321Z,96.64
2018-02-10T08:45:52.031Z,96.16
2018-02-10T08:46:52.129Z,96.45
2018-02-10T08:47:51.862Z,97.01
2018-02-10T08:48:51.932Z,97.01
2018-02-10T08:49:51.694Z,97.20
2018-02-10T08:50:51.745Z,96.83
2018-02-10T08:51:51.532Z,96.92
2018-02-10T08:52:51.558Z,96.83
2018-02-10T08:53:51.351Z,97.20
2018-02-10T08:54:51.371Z,97.39
2018-02-10T08:55:51.189Z,96.92
2018-02-10T08:56:51.177Z,97.01
2018-02-10T08:57:51.030Z,97.30
2018-02-10T08:58:50.985Z,97.01
2018-02-10T08:59:50.845Z,96.92
2018-02-10T09:00:50.897Z,96.64
2018-02-10T09:01:50.676Z,96.35
2018-02-10T09:02:50.806Z,96.54
2018-02-10T09:03:50.506Z,95.88
2018-02-10T09:04:50.513Z,95.69
2018-02-10T09:05:50.334Z,95.88
2018-02-10T09:06:50.319Z,95.31
2018-02-10T09:07:50.172Z,95.50
2018-02-10T09:08:55.147Z,95.69
2018-02-10T09:09:50.033Z,95.69
2018-02-10T09:10:50.040Z,95.59
2018-02-10T09:11:49.831Z,95.59
2018-02-10T09:12:49.951Z,95.50
2018-02-10T09:13:49.672Z,95.21
2018-02-10T09:14:49.759Z,95.12
2018-02-10T09:15:49.494Z,95.21
2018-02-10T09:16:49.564Z,95.03
2018-02-10T09:17:49.322Z,94.84
2018-02-10T09:18:49.275Z,94.93
2018-02-10T09:19:49.150Z,94.93
2018-02-10T09:20:49.290Z,94.84
2018-02-10T09:21:48.991Z,94.93
2018-02-10T09:22:48.999Z,94.37
2018-02-10T09:23:48.817Z,94.74
2018-02-10T09:24:48.907Z,94.42
2018-02-10T09:25:48.646Z,94.37
2018-02-10T09:26:48.717Z,94.79
2018-02-10T09:27:48.483Z,94.74
2018-02-10T09:28:48.528Z,94.65
2018-02-10T09:29:48.310Z,94.60
2018-02-10T09:30:48.436Z,95.17
2018-02-10T09:31:48.140Z,95.21
2018-02-10T09:32:48.246Z,95.36
2018-02-10T09:33:47.973Z,95.55
2018-02-10T09:34:48.053Z,95.64
2018-02-10T09:35:47.803Z,95.64
2018-02-10T09:36:47.864Z,95.64
2018-02-10T09:37:47.630Z,95.45
2018-02-10T09:38:47.772Z,95.07
2018-02-10T09:39:47.465Z,95.07
2018-02-10T09:40:47.583Z,94.98
2018-02-10T09:41:47.296Z,94.23
2018-02-10T09:42:47.394Z,94.79
2018-02-10T09:43:47.128Z,94.32
2018-02-10T09:44:47.250Z,94.51
2018-02-10T09:45:46.959Z,94.51
2018-02-10T09:46:47.012Z,94.32
2018-02-10T09:47:46.790Z,94.32
2018-02-10T09:48:46.818Z,94.23
2018-02-10T09:49:46.626Z,93.94
2018-02-10T09:50:46.629Z,93.37
2018-02-10T09:51:46.455Z,93.94
2018-02-10T09:52:46.438Z,93.56
2018-02-10T09:53:46.283Z,93.66
2018-02-10T09:54:46.246Z,92.90
2018-02-10T09:55:46.121Z,92.52
2018-02-10T09:56:46.055Z,92.80
2018-02-10T09:57:45.948Z,92.80
2018-02-10T09:58:45.968Z,92.99
2018-02-10T09:59:45.778Z,93.18
2018-02-10T10:00:45.778Z,92.80
2018-02-10T10:01:45.650Z,93.37
2018-02-10T10:02:45.586Z,92.71
2018-02-10T10:03:45.445Z,93.66
2018-02-10T10:04:45.393Z,92.52
2018-02-10T10:05:45.275Z,92.99
2018-02-10T10:06:45.303Z,92.80
2018-02-10T10:07:45.104Z,93.56
2018-02-10T10:08:45.114Z,93.28
2018-02-10T10:09:44.937Z,92.61
2018-02-10T10:10:44.923Z,92.14
2018-02-10T10:11:44.769Z,91.96
2018-02-10T10:12:44.732Z,92.33
2018-02-10T10:13:44.596Z,92.24
2018-02-10T10:14:44.645Z,91.96
2018-02-10T10:15:44.435Z,91.86
2018-02-10T10:16:44.453Z,92.24
2018-02-10T10:17:44.300Z,92.24
2018-02-10T10:18:44.263Z,91.77
2018-02-10T10:19:44.098Z,92.24
2018-02-10T10:20:44.072Z,92.05
2018-02-10T10:21:43.926Z,91.96
2018-02-10T10:22:43.982Z,91.96
2018-02-10T10:23:43.756Z,91.96
2018-02-10T10:24:43.790Z,91.10
2018-02-10T10:25:43.589Z,90.82
2018-02-10T10:26:43.601Z,91.48
2018-02-10T10:27:43.415Z,91.20
2018-02-10T10:28:43.409Z,90.72
2018-02-10T10:29:43.251Z,91.20
2018-02-10T10:30:43.258Z,90.82
2018-02-10T10:31:43.083Z,91.01
2018-02-10T10:32:43.219Z,91.39
2018-02-10T10:33:42.923Z,91.20
2018-02-10T10:34:42.938Z,90.91
2018-02-10T10:35:42.747Z,91.20
2018-02-10T10:36:42.747Z,91.20
2018-02-10T10:37:42.581Z,91.10
2018-02-10T10:38:42.556Z,90.82
2018-02-10T10:39:42.424Z,90.53
2018-02-10T10:40:42.364Z,90.91
2018-02-10T10:41:42.250Z,91.10
2018-02-10T10:42:42.285Z,91.20
2018-02-10T10:43:42.076Z,90.25
2018-02-10T10:44:42.084Z,90.30
2018-02-10T10:45:41.906Z,90.53
2018-02-10T10:46:41.891Z,90.34
2018-02-10T10:47:41.748Z,90.06
2018-02-10T10:48:41.703Z,90.25
2018-02-10T10:49:41.578Z,90.25
2018-02-10T10:50:41.500Z,90.25
2018-02-10T10:51:41.405Z,90.06
2018-02-10T10:52:41.390Z,91.01
2018-02-10T10:53:41.237Z,91.39
2018-02-10T10:54:41.231Z,91.43
2018-02-10T10:55:41.070Z,90.16
2018-02-10T10:56:41.040Z,90.20
2018-02-10T10:57:40.902Z,90.30
2018-02-10T10:58:40.952Z,90.20
2018-02-10T10:59:40.732Z,90.11
2018-02-10T11:00:40.764Z,90.30
2018-02-10T11:01:40.566Z,90.11
2018-02-10T11:02:40.571Z,89.92
2018-02-10T11:03:40.396Z,89.92
2018-02-10T11:04:40.379Z,90.67
2018-02-10T11:05:40.229Z,90.67
2018-02-10T11:06:40.292Z,90.48
2018-02-10T11:07:40.068Z,90.48
2018-02-10T11:08:40.100Z,90.11
2018-02-10T11:09:39.899Z,89.73
2018-02-10T11:10:39.912Z,89.06
2018-02-10T11:11:39.727Z,88.97
2018-02-10T11:12:39.678Z,89.16
2018-02-10T11:13:39.561Z,89.16
2018-02-10T11:14:39.661Z,88.87
2018-02-10T11:15:39.393Z,89.44
2018-02-10T11:16:39.440Z,89.44
2018-02-10T11:17:39.225Z,88.68
2018-02-10T11:18:39.248Z,89.44
2018-02-10T11:19:39.056Z,89.16
2018-02-10T11:20:39.057Z,88.68
2018-02-10T11:21:38.888Z,88.87
2018-02-10T11:22:38.865Z,89.06
2018-02-10T11:23:38.723Z,89.06
2018-02-10T11:24:38.775Z,89.06
2018-02-10T11:25:38.552Z,89.06
2018-02-10T11:26:38.581Z,89.06
2018-02-10T11:27:38.386Z,89.16
2018-02-10T11:28:38.394Z,89.44
2018-02-10T11:29:38.219Z,89.44
2018-02-10T11:30:38.204Z,89.25
2018-02-10T11:31:38.050Z,89.25
2018-02-10T11:32:38.115Z,89.06
2018-02-10T11:33:37.883Z,89.25
2018-02-10T11:34:37.924Z,89.44
2018-02-10T11:35:37.715Z,89.35
2018-02-10T11:36:37.733Z,89.73
2018-02-10T11:37:37.549Z,89.06
2018-02-10T11:38:37.542Z,89.16
2018-02-10T11:39:37.380Z,89.35
2018-02-10T11:40:37.455Z,88.78
2018-02-10T11:41:37.215Z,88.68
2018-02-10T11:42:37.263Z,88.31
2018-02-10T11:43:37.043Z,88.40
2018-02-10T11:44:37.073Z,88.59
2018-02-10T11:45:36.873Z,88.02
2018-02-10T11:46:36.880Z,88.40
2018-02-10T11:47:36.717Z,88.49
2018-02-10T11:48:36.792Z,88.31
2018-02-10T11:49:36.541Z,87.46
2018-02-10T11:50:36.600Z,87.46
2018-02-10T11:51:36.418Z,87.27
2018-02-10T11:52:36.735Z,87.08
2018-02-10T11:53:36.208Z,87.46
2018-02-10T11:54:36.225Z,87.46
2018-02-10T11:55:36.041Z,86.89
2018-02-10T11:56:36.029Z,86.79
2018-02-10T11:57:35.877Z,86.79
2018-02-10T11:58:35.944Z,86.60
2018-02-10T11:59:35.722Z,86.22
2018-02-10T12:00:35.755Z,86.79
2018-02-10T12:01:35.549Z,86.79
2018-02-10T12:02:35.618Z,86.79
2018-02-10T12:03:35.386Z,87.55
2018-02-10T12:04:35.371Z,86.70
2018-02-10T12:05:35.207Z,87.31
2018-02-10T12:06:35.285Z,86.89
2018-02-10T12:07:35.038Z,87.17
2018-02-10T12:08:35.092Z,86.46
2018-02-10T12:09:34.869Z,86.32
2018-02-10T12:10:34.900Z,86.32
2018-02-10T12:11:34.701Z,86.60
2018-02-10T12:12:34.622Z,86.51
2018-02-10T12:13:34.536Z,86.51
2018-02-10T12:14:34.615Z,86.89
2018-02-10T12:15:34.375Z,87.65
2018-02-10T12:16:34.426Z,87.55
2018-02-10T12:17:34.199Z,87.08
2018-02-10T12:18:34.232Z,87.02
2018-02-10T12:19:34.032Z,87.21
2018-02-10T12:20:34.042Z,87.02
2018-02-10T12:21:34.413Z,86.70
2018-02-10T12:22:33.956Z,87.31
2018-02-10T12:23:33.703Z,86.89
2018-02-10T12:24:33.768Z,86.60
2018-02-10T12:25:33.536Z,86.83
2018-02-10T12:26:33.515Z,86.74
2018-02-10T12:27:33.370Z,86.55
2018-02-10T12:28:33.327Z,86.08
2018-02-10T12:29:33.199Z,86.08
2018-02-10T12:30:33.227Z,86.36
2018-02-10T12:31:33.032Z,85.04
2018-02-10T12:32:33.035Z,84.66
2018-02-10T12:33:32.867Z,84.75
2018-02-10T12:34:32.844Z,84.66
2018-02-10T12:35:32.705Z,85.04
2018-02-10T12:36:32.817Z,85.99
2018-02-10T12:37:32.533Z,85.89
2018-02-10T12:38:32.563Z,85.32
2018-02-10T12:39:32.364Z,84.85
2018-02-10T12:40:32.370Z,85.04
2018-02-10T12:41:32.199Z,85.04
2018-02-10T12:42:32.180Z,84.66
2018-02-10T12:43:32.032Z,84.19
2018-02-10T12:44:31.949Z,84.28
2018-02-10T12:45:31.865Z,84.56
2018-02-10T12:46:31.782Z,84.66
2018-02-10T12:47:31.799Z,84.75
2018-02-10T12:48:31.617Z,84.28
2018-02-10T12:49:31.612Z,84.47
2018-02-10T12:50:31.456Z,84.28
2018-02-10T12:51:31.421Z,84.00